Aérodrome :
LOGIN :

S'inscrire | Disclaimer

   EN    FR    IT 

 










Légende :    VFR   VFR Marginal   IFR   IFR Intensif   IFR Très Intensif
Visi : 
Plafond : 
>= 8 km
>= 3000ft
5 à 8 km
1000 à 3000 ft
1500m à 5 km
500 à 1000 ft
800 à 1500m
200 à 500 ft
< 800m
< 200 ft
Symboles :   Orages  Brouillard  Fortes neiges  Fortes précipitations  Vent > 20 kt
SIGMETs :   Divers  Orages  Givrage  Turbulence  Onde Orograph.  Cendres Volcan.







- Altitude de l'aérodrome : 0 ft


ETEB - Ansbach Army Heliport

DERNIER METAR :
  • 162258Z AUTO 15004KT 9999 CLR 13/10 A3029 RMK AO2 SLP260 T01300104 402240095 $

METARs EXPIRÉS :
  • 162158Z AUTO 16005KT 9999 CLR 13/10 A3030 RMK AO2 SLP265 T01320103 $
  • 162058Z AUTO 18004KT 9999 CLR 14/11 A3031 RMK AO2 SLP271 T01390110 $

TAF TAF ETEB
Valide du 16 à 21h jusqu'au 18 à 03h UTC


162105Z 1621/1803 18006KT 9999 SKC QNH3025INS
TEMPO 1701/1706 8000 BR
BECMG 1708/1709 18006KT 9999 SKC QNH3015INS
BECMG 1719/1720 18006KT 8000 BR FEW200 QNH3010INS TX20/1715Z TN07/1706Z
Pas de NOTAMs connus pour ce terrain.



MET'MAP, la Météo Aéronautique d'un coup d'oeil ! - Copyright ORBIFLY Décembre 2007 - Disclaimer

ORBIFLY MET'MAP TEAM :

Programmation & Développement : Alexandra Zaïnal
Conception & Développement : Baudouin d'Aumeries
Co-Programmation & Développement : Marc-Olivier Méhu
Soutien technique & logistique : Manuel Goepfert

Contact : metmap@orbifly.com




SOURCES & CREDITS :

   NOAA